• Join FlightAware (Why Join?)
  • Login
  • US Flag 
01:02AM EDT


 

Airport Tracker/Info


-or-


 

Live Flight TrackerFlight Track Log ✈ UAL4457 ✈ 01-May-2013 ✈ KIAH - KLEX

Flight Track Log - Related Links

Times and Time Zones

All times are in EDT time to prevent confusion due to time zone crossing. See the UAL4457 flight status page for this flight to view local times or setup timezone preferences in your user account.

Time Position Orientation Groundspeed Altitude Reporting Facility
EDT Latitude Longitude Course Direction KTS MPH feet Rate Location/Type
03:01PM 29.9786 -95.2981 35° Northeast 173 199 600  Level Houston Center
03:01PM 29.9833 -95.2831 70° East 158 182 1,200 1,740 Climbing Houston Center
03:02PM 30.0433 -95.2492 26° Northeast 252 290 3,100 2,460 Climbing Houston Center
03:03PM 30.1167 -95.2258 15° North 267 307 6,500 2,940 Climbing Houston Center
03:04PM 30.1836 -95.1756 33° Northeast 257 296 9,500 1,980 Climbing Houston Center
03:05PM 30.2494 -95.1250 34° Northeast 277 319 10,800 1,200 Climbing Houston Center
03:06PM 30.5315 -94.8981 35° Northeast  Level FlightAware Approximate
03:06PM 30.3283 -95.0656 33° Northeast 327 376 12,100  Level Houston Center
03:07PM 30.4094 -95.0033 33° Northeast 344 396 13,800 1,740 Climbing Houston Center
03:08PM 30.5014 -94.9314 34° Northeast 351 404 15,800 1,740 Climbing Houston Center
03:09PM 30.5842 -94.8686 33° Northeast 353 406 17,500 1,500 Climbing Houston Center
03:11PM 30.6664 -94.8031 34° Northeast 358 412 19,000 1,380 Climbing Houston Center
03:12PM 30.7503 -94.7392 33° Northeast 360 414 20,400 1,440 Climbing Houston Center
03:13PM 30.8358 -94.6733 33° Northeast 366 421 22,000 1,680 Climbing Houston Center
03:13PM 30.8842 -94.6347 34° Northeast 361 415 22,900 1,800 Climbing Fort Worth Center
03:14PM 30.9706 -94.5692 33° Northeast 367 422 24,600 1,740 Climbing Fort Worth Center
03:15PM 31.0586 -94.5011 34° Northeast 367 422 26,400 1,620 Climbing Fort Worth Center
03:16PM 31.1306 -94.4456 33° Northeast 358 412 27,900 1,620 Climbing Fort Worth Center
03:17PM 31.2247 -94.3719 34° Northeast 358 412 29,700 1,500 Climbing Fort Worth Center
03:18PM 31.3067 -94.3086 33° Northeast 358 412 31,000 1,200 Climbing Fort Worth Center
03:19PM 31.3906 -94.2425 34° Northeast 363 418 32,200 1,200 Climbing Fort Worth Center
03:20PM 31.4744 -94.1764 34° Northeast 363 418 33,400 900 Climbing Fort Worth Center
03:21PM 31.5606 -94.1100 33° Northeast 368 423 34,000 300 Climbing Fort Worth Center
03:22PM 31.6342 -94.0536 33° Northeast 368 423 34,000  Level Fort Worth Center
03:23PM 31.7406 -93.9717 33° Northeast 389 448 34,000  Level Fort Worth Center
03:24PM 31.8428 -93.8919 34° Northeast 418 481 34,000 60 Level Fort Worth Center
03:25PM 31.9589 -93.7944 35° Northeast 456 525 34,200 660 Climbing Fort Worth Center
03:26PM 32.0486 -93.7247 33° Northeast 456 525 35,400 900 Climbing Fort Worth Center
03:27PM 32.1508 -93.6444 34° Northeast 439 505 36,000 300 Climbing Fort Worth Center
03:28PM 32.2606 -93.5492 36° Northeast 444 511 36,000  Level Fort Worth Center
03:29PM 32.3664 -93.4633 34° Northeast 444 511 36,000  Level Fort Worth Center
03:30PM 32.4661 -93.3828 34° Northeast 444 511 36,000  Level Fort Worth Center
03:31PM 32.5681 -93.3042 33° Northeast 433 498 36,000  Level Fort Worth Center
03:32PM 32.6736 -93.2181 34° Northeast 438 504 36,000  Level Fort Worth Center
03:33PM 32.7772 -93.1342 34° Northeast 444 511 36,000  Level Fort Worth Center
03:34PM 32.8808 -93.0500 34° Northeast 444 511 36,000  Level Fort Worth Center
03:35PM 32.9864 -92.9656 34° Northeast 449 517 36,000  Level Fort Worth Center
03:36PM 33.0897 -92.8786 35° Northeast 449 517 36,000 420 Level Fort Worth Center
03:37PM 33.1953 -92.7939 34° Northeast 449 517 36,900 300 Climbing Fort Worth Center
03:39PM 33.3511 -92.6028 46° Northeast 420 483 37,000  Climbing Memphis Center
03:40PM 33.4283 -92.4881 51° Northeast 435 501 37,000  Level Memphis Center
03:41PM 33.5011 -92.3750 52° Northeast 452 520 37,000  Level Memphis Center
03:42PM 33.5825 -92.2497 52° Northeast 457 526 37,000  Level Memphis Center
03:43PM 33.6633 -92.1317 51° Northeast 452 520 37,000  Level Memphis Center
03:44PM 33.7381 -92.0158 52° Northeast 452 520 37,000  Level Memphis Center
03:45PM 33.8147 -91.8972 52° Northeast 457 526 37,000  Level Memphis Center
03:46PM 33.8953 -91.7836 49° Northeast 451 519 37,000  Level Memphis Center
03:47PM 33.9964 -91.7050 33° Northeast 438 504 37,000  Level Memphis Center
03:48PM 34.1100 -91.6267 30° Northeast 443 510 37,000  Level Memphis Center
03:49PM 34.2192 -91.5478 31° Northeast 451 519 37,000  Level Memphis Center
03:50PM 34.3286 -91.4689 31° Northeast 452 520 37,000  Level Memphis Center
03:51PM 34.4378 -91.3872 32° Northeast 452 520 37,000  Level Memphis Center
03:52PM 34.5469 -91.3103 30° Northeast 452 520 37,000  Level Memphis Center
03:53PM 34.6311 -91.2000 47° Northeast 438 504 37,000  Level Memphis Center
03:54PM 34.6778 -91.0642 67° East 430 495 37,000  Level Memphis Center
03:55PM 34.7267 -90.9206 67° East 443 510 37,000  Level Memphis Center
03:56PM 34.7731 -90.7944 66° East 448 516 37,000  Level Memphis Center
03:57PM 34.8233 -90.6556 66° East 448 516 37,000  Level Memphis Center
03:58PM 34.8717 -90.5167 67° East 448 516 37,000  Level Memphis Center
03:59PM 34.9217 -90.3772 66° East 448 516 37,000  Level Memphis Center
04:00PM 34.9719 -90.2356 67° East 448 516 37,000  Level Memphis Center
04:01PM 35.0278 -90.0806 66° East 448 516 37,000  Level Memphis Center
04:02PM 35.0775 -89.9408 66° East 448 516 37,000  Level Memphis Center
04:03PM 35.1250 -89.7961 68° East 453 521 37,000  Level Memphis Center
04:04PM 35.1742 -89.6508 67° East 459 528 37,000  Level Memphis Center
04:05PM 35.2214 -89.5106 68° East 449 517 37,000  Level Memphis Center
04:06PM 35.2622 -89.3856 68° East 449 517 37,000  Level Memphis Center
04:07PM 35.3089 -89.2453 68° East 444 511 37,000  Level Memphis Center
04:08PM 35.3578 -89.1044 67° East 444 511 37,000  Level Memphis Center
04:09PM 35.4042 -88.9636 68° East 439 505 37,000  Level Memphis Center
04:10PM 35.4525 -88.8228 67° East 439 505 37,000  Level Memphis Center
04:11PM 35.4967 -88.6792 69° East 439 505 37,000  Level Memphis Center
04:12PM 35.5425 -88.5353 69° East 439 505 37,000  Level Memphis Center
04:13PM 35.5903 -88.3936 67° East 439 505 37,000  Level Memphis Center
04:14PM 35.6381 -88.2522 67° East 439 505 37,000  Level Memphis Center
04:15PM 35.6858 -88.1156 67° East 434 499 37,000  Level Memphis Center
04:16PM 35.7311 -87.9786 68° East 434 499 37,000  Level Memphis Center
04:17PM 35.7994 -87.8486 57° Northeast 441 507 37,000 -420 Level Memphis Center
04:18PM 35.8719 -87.7261 54° Northeast 441 507 36,200 -1,020 Descending Memphis Center
04:19PM 35.9403 -87.6008 56° Northeast 441 507 35,000 -600 Descending Memphis Center
04:20PM 36.0103 -87.4753 55° Northeast 441 507 35,000 -360 Level Memphis Center
04:21PM 36.0864 -87.3367 56° Northeast 441 507 34,300 -960 Descending Memphis Center
04:22PM 36.1581 -87.2053 56° Northeast 453 521 33,100 -1,200 Descending Memphis Center
04:23PM 36.2297 -87.0764 55° Northeast 448 516 32,000 -1,020 Descending Memphis Center
04:24PM 36.2856 -86.9739 56° Northeast 448 516 31,100 -1,980 Descending Memphis Center
04:25PM 36.3606 -86.8292 57° Northeast 448 516 28,100 -3,000 Descending Memphis Center
04:26PM 36.4361 -86.6994 54° Northeast 455 524 25,100 -2,100 Descending Memphis Center
04:27PM 36.5011 -86.5775 56° Northeast 441 507 24,000 -600 Descending Memphis Center
04:28PM 36.5683 -86.4531 56° Northeast 430 495 24,000  Level Memphis Center
04:29PM 36.6431 -86.3150 56° Northeast 430 495 24,000  Level Memphis Center
04:30PM 36.7097 -86.1925 56° Northeast 430 495 24,000  Level Memphis Center
04:31PM 36.8097 -86.0028 57° Northeast 446 513 24,000  Level Indianapolis Center
04:32PM 36.8789 -85.8722 56° Northeast 447 514 24,000  Level Indianapolis Center
04:33PM 36.9475 -85.7417 57° Northeast 446 513 24,000  Level Indianapolis Center
04:35PM 37.0294 -85.5872 56° Northeast 453 521 24,000 -780 Level Indianapolis Center
04:36PM 37.1008 -85.4525 56° Northeast 446 513 22,400 -1,860 Descending Indianapolis Center
04:37PM 37.1717 -85.3336 53° Northeast 431 496 20,200 -2,160 Descending Indianapolis Center
04:38PM 37.2592 -85.2408 40° Northeast 415 478 18,000 -2,100 Descending Indianapolis Center
04:39PM 37.3433 -85.1503 41° Northeast 402 463 15,900 -2,040 Descending Indianapolis Center
04:40PM 37.4250 -85.0608 41° Northeast 390 449 13,800 -2,040 Descending Indianapolis Center
04:41PM 37.5025 -84.9786 40° Northeast 373 429 11,800 -1,860 Descending Indianapolis Center
04:42PM 37.5956 -84.9156 28° Northeast 335 386 10,000 -1,920 Descending Indianapolis Center
04:43PM 37.6628 -84.8717 27° Northeast 287 330 7,900 -2,040 Descending Indianapolis Center
04:44PM 37.7267 -84.8289 28° Northeast 267 307 5,800 -1,740 Descending Indianapolis Center
04:45PM 37.7919 -84.7886 26° Northeast 262 302 4,400 -1,200 Descending Indianapolis Center
04:46PM 37.8547 -84.7467 28° Northeast 260 299 3,400 -900 Descending Indianapolis Center
04:47PM 37.9142 -84.7092 26° Northeast 252 290 2,600 -780 Descending Indianapolis Center